Time;durP1;ratioP1;P1;durP2;ratioP2;P2;SDS_P1;SDS_P2;PMS_P1;PMS_P2;Temp;Humidity;BMP_temperature;BMP_pressure;BME280_temperature;BME280_humidity;BME280_pressure;Samples;Min_cycle;Max_cycle;Signal;HPM_P1;HPM_P2
2023/04/20 00:05:08;;;;;;;9.27;7.50;;;8.50;99.90;;;;;;10343132;28;20200;-79
2023/04/20 00:10:29;;;;;;;12.27;7.23;;;8.50;99.90;;;;;;10311965;28;20212;-78
2023/04/20 00:15:50;;;;;;;10.23;7.70;;;8.60;99.90;;;;;;10317052;28;20590;-79
2023/04/20 00:21:12;;;;;;;12.67;7.97;;;8.60;99.90;;;;;;10320401;28;20499;-79
2023/04/20 00:26:33;;;;;;;13.30;8.77;;;8.50;99.90;;;;;;10318430;28;20220;-79
2023/04/20 00:31:54;;;;;;;12.87;9.27;;;8.50;99.90;;;;;;10306399;28;20416;-79
2023/04/20 00:37:15;;;;;;;12.07;8.20;;;8.50;99.90;;;;;;10317454;28;20225;-79
2023/04/20 00:42:39;;;;;;;11.87;7.67;;;8.60;99.90;;;;;;10354971;28;20199;-79
2023/04/20 00:48:00;;;;;;;8.23;7.00;;;8.60;99.90;;;;;;10319335;28;20202;-79
2023/04/20 00:53:22;;;;;;;9.37;7.50;;;8.70;99.90;;;;;;10318683;28;20211;-79
2023/04/20 00:58:43;;;;;;;9.47;7.83;;;8.70;99.90;;;;;;10300796;28;20253;-79
2023/04/20 01:04:06;;;;;;;14.83;8.40;;;8.60;99.90;;;;;;10326434;28;20198;-79
2023/04/20 01:09:28;;;;;;;16.77;9.47;;;8.60;99.90;;;;;;10292453;28;20210;-79
2023/04/20 01:14:49;;;;;;;13.47;9.10;;;8.50;99.90;;;;;;10317176;28;20238;-79
2023/04/20 01:20:11;;;;;;;12.57;9.03;;;8.40;99.90;;;;;;10332084;28;20191;-79
2023/04/20 01:25:32;;;;;;;14.37;9.77;;;8.40;99.90;;;;;;10304176;28;20249;-79
2023/04/20 01:30:54;;;;;;;15.17;9.30;;;8.40;99.90;;;;;;10313649;28;20510;-79
2023/04/20 01:36:15;;;;;;;14.03;10.03;;;8.30;99.90;;;;;;10322034;28;20248;-79
2023/04/20 01:41:38;;;;;;;13.73;9.70;;;8.40;99.90;;;;;;10352004;28;20417;-79
2023/04/20 01:46:59;;;;;;;16.33;9.70;;;8.40;99.90;;;;;;10319873;28;20236;-79
2023/04/20 01:52:20;;;;;;;15.30;9.27;;;8.40;99.90;;;;;;10317095;28;20196;-78
2023/04/20 01:57:43;;;;;;;18.40;9.27;;;8.40;99.90;;;;;;10328571;28;20415;-79
2023/04/20 02:03:04;;;;;;;13.67;9.63;;;8.40;99.90;;;;;;10305393;28;20268;-80
2023/04/20 02:08:25;;;;;;;14.87;9.20;;;8.40;99.90;;;;;;10330257;28;20554;-79
2023/04/20 02:13:47;;;;;;;14.13;9.63;;;8.50;99.90;;;;;;10313504;28;20203;-79
2023/04/20 02:19:08;;;;;;;14.63;9.57;;;8.50;99.90;;;;;;10302174;28;20367;-79
2023/04/20 02:24:29;;;;;;;14.13;8.97;;;8.50;99.90;;;;;;10311829;28;20272;-79
2023/04/20 02:29:51;;;;;;;14.30;10.10;;;8.50;99.90;;;;;;10315793;28;20195;-80
2023/04/20 02:35:12;;;;;;;16.37;11.53;;;8.50;99.90;;;;;;10315234;28;20393;-80
2023/04/20 02:40:35;;;;;;;23.47;14.03;;;8.40;99.90;;;;;;10324361;28;20414;-79
2023/04/20 02:45:57;;;;;;;20.20;12.40;;;8.50;99.90;;;;;;10315005;28;20224;-79
2023/04/20 02:51:18;;;;;;;16.93;12.47;;;8.40;99.90;;;;;;10314516;28;20200;-79
2023/04/20 02:56:39;;;;;;;18.57;11.57;;;8.40;99.90;;;;;;10299141;28;20245;-80
2023/04/20 03:02:03;;;;;;;19.37;11.07;;;8.40;99.90;;;;;;10276745;28;20427;-79
2023/04/20 03:07:25;;;;;;;15.00;9.03;;;8.40;99.90;;;;;;10288000;28;20227;-79
2023/04/20 03:12:46;;;;;;;13.47;8.27;;;8.40;99.90;;;;;;10306973;28;20233;-79
2023/04/20 03:18:27;;;;;;;11.80;8.13;;;8.30;99.90;;;;;;10313677;28;20502;-80
2023/04/20 03:23:49;;;;;;;17.23;10.57;;;8.30;99.90;;;;;;10309706;28;20193;-80
2023/04/20 03:29:11;;;;;;;15.10;10.27;;;8.20;99.90;;;;;;10313834;28;20212;-79
2023/04/20 03:34:33;;;;;;;18.23;11.23;;;8.10;99.90;;;;;;10313032;28;20254;-79
2023/04/20 03:39:55;;;;;;;21.13;14.07;;;8.00;99.90;;;;;;10345858;28;20223;-79
2023/04/20 03:45:18;;;;;;;21.87;14.13;;;8.00;99.90;;;;;;10275654;28;20202;-79
2023/04/20 03:50:39;;;;;;;20.90;15.07;;;7.90;99.90;;;;;;10277345;28;20388;-79
2023/04/20 03:56:00;;;;;;;23.60;16.63;;;7.90;99.90;;;;;;10314589;28;20293;-79
2023/04/20 04:01:22;;;;;;;21.70;15.57;;;7.90;99.90;;;;;;10319611;28;20292;-79
2023/04/20 04:06:44;;;;;;;25.93;16.67;;;7.80;99.90;;;;;;10323412;28;20200;-79
2023/04/20 04:12:05;;;;;;;23.20;14.83;;;7.80;99.90;;;;;;10316058;28;20296;-79
2023/04/20 04:17:27;;;;;;;19.27;12.87;;;7.80;99.90;;;;;;10321589;28;20216;-78
2023/04/20 04:22:50;;;;;;;18.70;12.47;;;7.80;99.90;;;;;;10334370;28;20192;-78
2023/04/20 04:28:25;;;;;;;15.10;9.87;;;7.80;99.90;;;;;;10302104;28;20508;-80
2023/04/20 04:34:09;;;;;;;12.57;8.87;;;7.80;99.90;;;;;;10332974;28;20223;-79
2023/04/20 04:39:37;;;;;;;19.90;9.60;;;7.80;99.90;;;;;;10363936;28;20557;-79
2023/04/20 04:45:17;;;;;;;14.10;9.40;;;7.80;99.90;;;;;;10298680;28;20228;-80
2023/04/20 04:50:39;;;;;;;14.80;9.67;;;7.80;99.90;;;;;;10281791;28;20213;-79
2023/04/20 04:56:00;;;;;;;15.93;10.93;;;7.90;99.90;;;;;;10301495;28;20253;-78
2023/04/20 05:01:21;;;;;;;15.43;10.87;;;7.90;99.90;;;;;;10317960;28;20386;-78
2023/04/20 05:06:42;;;;;;;14.10;11.30;;;8.00;99.90;;;;;;10318788;28;20342;-78
2023/04/20 05:12:04;;;;;;;17.03;10.70;;;8.10;99.90;;;;;;10314036;28;20433;-78
2023/04/20 05:17:25;;;;;;;13.73;9.47;;;8.10;99.90;;;;;;10304462;28;20247;-79
2023/04/20 05:22:46;;;;;;;11.87;8.23;;;8.20;99.90;;;;;;10318192;28;20197;-79
2023/04/20 05:28:08;;;;;;;16.67;8.70;;;8.30;99.90;;;;;;10327091;28;20208;-79
2023/04/20 05:33:29;;;;;;;11.43;8.60;;;8.40;99.90;;;;;;10318079;28;20216;-79
2023/04/20 05:38:50;;;;;;;17.40;10.63;;;8.50;99.90;;;;;;10327371;28;20511;-78
2023/04/20 05:44:12;;;;;;;15.33;9.67;;;8.70;99.90;;;;;;10310069;28;20278;-79
2023/04/20 05:49:34;;;;;;;13.30;9.20;;;8.80;99.90;;;;;;10329563;28;20229;-79
2023/04/20 05:54:55;;;;;;;19.27;11.97;;;8.90;99.90;;;;;;10316087;28;20555;-80
2023/04/20 06:00:17;;;;;;;14.60;9.20;;;9.10;99.90;;;;;;10330587;28;20211;-79
2023/04/20 06:05:38;;;;;;;14.50;8.33;;;9.30;99.90;;;;;;10316181;28;20199;-79
2023/04/20 06:11:00;;;;;;;11.30;8.47;;;9.60;99.90;;;;;;10316482;28;20193;-80
2023/04/20 06:16:21;;;;;;;16.47;9.80;;;10.20;99.90;;;;;;10311331;28;20234;-78
2023/04/20 06:21:42;;;;;;;15.60;10.20;;;11.10;99.90;;;;;;10315757;28;20285;-79
2023/04/20 06:27:03;;;;;;;13.77;8.97;;;12.20;99.90;;;;;;10331529;28;20204;-78
2023/04/20 06:32:24;;;;;;;17.70;10.37;;;13.10;98.00;;;;;;10311288;28;20201;-80
2023/04/20 06:37:46;;;;;;;25.08;13.20;;;13.80;94.30;;;;;;10344245;28;20224;-79
2023/04/20 06:43:07;;;;;;;18.02;11.02;;;14.50;85.70;;;;;;10347100;28;20201;-80
2023/04/20 06:48:29;;;;;;;17.98;9.50;;;;;;;;;;10315796;28;20196;-80
2023/04/20 06:53:53;;;;;;;20.88;10.77;;;;;;;;;;10327902;28;20207;-80
2023/04/20 06:59:16;;;;;;;15.35;8.93;;;16.30;41.50;;;;;;10298633;28;20573;-80
2023/04/20 07:04:38;;;;;;;16.17;10.60;;;16.50;37.10;;;;;;10296338;28;20219;-80
2023/04/20 07:09:59;;;;;;;12.88;8.32;;;16.80;32.90;;;;;;10313646;28;20491;-80
2023/04/20 07:15:21;;;;;;;12.90;8.40;;;17.10;30.30;;;;;;10307840;28;20241;-80
2023/04/20 07:20:43;;;;;;;10.85;7.78;;;17.50;27.00;;;;;;10313456;28;20197;-82
2023/04/20 07:26:04;;;;;;;10.60;7.05;;;17.90;25.30;;;;;;10300169;28;20255;-80
2023/04/20 07:31:25;;;;;;;14.68;9.43;;;18.10;24.40;;;;;;10267155;28;20266;-79
2023/04/20 07:36:47;;;;;;;9.05;6.63;;;18.50;23.40;;;;;;10284119;28;20248;-79
2023/04/20 07:42:08;;;;;;;15.75;8.20;;;;;;;;;;10260660;29;20222;-78
2023/04/20 07:47:30;;;;;;;11.52;7.90;;;19.10;28.90;;;;;;10231584;29;20196;-79
2023/04/20 07:52:52;;;;;;;15.00;10.10;;;;;;;;;;10270231;29;20195;-78
2023/04/20 07:58:15;;;;;;;12.25;7.68;;;20.00;16.80;;;;;;10254149;28;20274;-80
2023/04/20 08:03:36;;;;;;;10.25;6.10;;;20.10;15.10;;;;;;10216999;29;20283;-79
2023/04/20 08:08:57;;;;;;;10.70;6.30;;;20.10;16.10;;;;;;10253717;29;20231;-78
2023/04/20 08:14:18;;;;;;;11.80;7.10;;;20.40;14.80;;;;;;10263885;28;20203;-79
2023/04/20 08:19:40;;;;;;;35.08;16.52;;;20.80;14.40;;;;;;10254175;29;20451;-80
2023/04/20 08:25:01;;;;;;;14.88;7.43;;;21.20;13.40;;;;;;10268354;29;20441;-79
2023/04/20 08:30:23;;;;;;;7.75;5.35;;;21.50;9.80;;;;;;10279666;28;20405;-79
2023/04/20 08:40:36;;;;;;;13.73;6.55;;;22.70;7.00;;;;;;10548002;27;20603;-79
2023/04/20 08:46:01;;;;;;;12.70;6.63;;;22.80;7.40;;;;;;10485772;28;20226;-78
2023/04/20 08:51:23;;;;;;;9.85;5.90;;;22.70;6.30;;;;;;10507150;28;20199;-80
2023/04/20 08:56:46;;;;;;;8.07;5.85;;;23.20;5.90;;;;;;10484902;28;20223;-80
2023/04/20 09:02:11;;;;;;;17.15;6.43;;;23.40;4.90;;;;;;10510460;28;20363;-77
2023/04/20 09:07:33;;;;;;;9.02;5.40;;;22.60;4.50;;;;;;10492957;28;20203;-81
2023/04/20 09:12:54;;;;;;;11.85;5.72;;;21.80;6.30;;;;;;10492584;28;20187;-78
2023/04/20 09:18:16;;;;;;;10.85;5.05;;;21.30;7.30;;;;;;10506632;28;20414;-79
2023/04/20 09:23:37;;;;;;;8.65;5.13;;;21.60;6.30;;;;;;10505383;28;20226;-79
2023/04/20 09:29:03;;;;;;;10.00;4.97;;;21.60;6.60;;;;;;10502394;28;20207;-79
2023/04/20 09:34:24;;;;;;;6.38;4.95;;;22.20;6.00;;;;;;10485491;28;20252;-79
2023/04/20 09:39:46;;;;;;;13.30;5.55;;;23.10;5.80;;;;;;10504633;28;20560;-78
2023/04/20 09:45:08;;;;;;;11.73;5.65;;;23.50;4.20;;;;;;10471686;28;20235;-80
2023/04/20 09:50:30;;;;;;;11.05;5.47;;;23.80;4.00;;;;;;10455339;28;20524;-80
2023/04/20 09:55:55;;;;;;;9.80;5.18;;;23.80;2.60;;;;;;10456509;28;20223;-79
2023/04/20 10:01:17;;;;;;;6.72;4.85;;;23.40;2.90;;;;;;10451597;28;20220;-79
2023/04/20 10:06:39;;;;;;;9.75;5.32;;;23.20;4.00;;;;;;10442807;28;20219;-81
2023/04/20 10:12:07;;;;;;;11.35;5.38;;;23.20;3.40;;;;;;10475387;28;20211;-81
2023/04/20 10:17:30;;;;;;;13.10;5.80;;;22.30;3.00;;;;;;10476213;28;20604;-81
2023/04/20 10:22:53;;;;;;;9.20;5.13;;;21.70;2.80;;;;;;10470842;28;20279;-83
2023/04/20 10:28:15;;;;;;;8.68;5.03;;;21.10;4.80;;;;;;10475995;28;20506;-85
2023/04/20 10:33:47;;;;;;;12.30;5.80;;;20.70;5.50;;;;;;10456775;28;20263;-83
2023/04/20 10:39:20;;;;;;;9.77;5.50;;;20.80;4.90;;;;;;10377929;28;20380;-80
2023/04/20 10:44:49;;;;;;;12.25;7.00;;;20.50;4.00;;;;;;10390688;28;20197;-84
2023/04/20 15:09:44;;;;;;;13.65;7.85;;;18.50;6.80;;;;;;10552352;27;20566;-85
2023/04/20 15:15:06;;;;;;;8.85;6.80;;;18.40;7.90;;;;;;10552076;28;20427;-84
2023/04/20 15:20:27;;;;;;;12.38;7.32;;;18.30;8.50;;;;;;10540136;28;20201;-86
2023/04/20 15:25:48;;;;;;;14.18;8.93;;;18.20;8.30;;;;;;10490913;28;20227;-84
2023/04/20 15:31:10;;;;;;;15.38;8.50;;;18.10;8.70;;;;;;10470830;28;20214;-84
2023/04/20 15:36:31;;;;;;;17.15;9.30;;;18.00;9.00;;;;;;10499330;28;20560;-86
2023/04/20 15:41:52;;;;;;;11.02;8.25;;;17.80;8.90;;;;;;10497785;28;20214;-85
2023/04/20 15:47:14;;;;;;;17.75;8.95;;;17.70;9.30;;;;;;10498130;28;20525;-84
2023/04/20 15:52:36;;;;;;;13.70;8.55;;;17.60;9.90;;;;;;10496063;28;20194;-87
2023/04/20 15:57:59;;;;;;;16.15;8.18;;;17.70;10.70;;;;;;10511313;28;20200;-84
2023/04/20 16:03:20;;;;;;;14.50;8.65;;;17.60;10.00;;;;;;10496677;28;20301;-84
2023/04/20 16:08:42;;;;;;;11.25;8.85;;;17.40;10.50;;;;;;10518658;28;20561;-85
2023/04/20 16:14:03;;;;;;;15.65;9.35;;;17.40;11.10;;;;;;10519505;28;20217;-86
2023/04/20 16:19:25;;;;;;;15.15;8.23;;;17.30;11.00;;;;;;10492338;28;20414;-85
2023/04/20 16:24:46;;;;;;;14.95;8.32;;;17.10;11.40;;;;;;10448381;28;20212;-84
2023/04/20 16:30:08;;;;;;;16.88;8.88;;;16.90;11.50;;;;;;10427290;28;20245;-84
2023/04/20 16:35:30;;;;;;;24.70;9.95;;;16.80;12.00;;;;;;10444574;28;20198;-86
2023/04/20 16:40:51;;;;;;;10.60;7.70;;;16.70;12.60;;;;;;10498236;28;20212;-84
2023/04/20 16:46:15;;;;;;;13.90;8.15;;;16.50;13.10;;;;;;10507008;28;20271;-85
2023/04/20 16:51:37;;;;;;;13.15;7.25;;;16.30;13.50;;;;;;10466586;28;20199;-84
2023/04/20 16:57:00;;;;;;;12.60;7.45;;;16.20;13.60;;;;;;10467560;28;20206;-85
2023/04/20 17:02:21;;;;;;;13.93;8.50;;;15.90;13.90;;;;;;10467244;28;20209;-84
2023/04/20 17:07:44;;;;;;;16.60;7.78;;;15.80;13.70;;;;;;10470113;28;20282;-83
2023/04/20 17:13:06;;;;;;;12.80;7.20;;;15.70;14.20;;;;;;10522925;28;20189;-85
2023/04/20 17:18:27;;;;;;;13.27;7.07;;;15.60;14.70;;;;;;10522385;28;20199;-86
2023/04/20 17:23:48;;;;;;;12.70;6.97;;;15.40;14.90;;;;;;10486232;28;20213;-85
2023/04/20 17:29:10;;;;;;;9.50;6.35;;;15.40;15.40;;;;;;10440365;28;20225;-85
2023/04/20 17:34:31;;;;;;;12.05;7.03;;;15.30;16.00;;;;;;10433117;28;20510;-85
2023/04/20 17:39:52;;;;;;;11.18;7.95;;;15.10;16.20;;;;;;10465253;28;20534;-86
2023/04/20 17:45:14;;;;;;;11.35;7.20;;;14.80;15.30;;;;;;10493627;28;20199;-86
2023/04/20 17:50:35;;;;;;;12.98;6.70;;;14.60;14.60;;;;;;10451676;28;20278;-84
2023/04/20 17:55:57;;;;;;;9.20;6.40;;;14.40;14.90;;;;;;10463382;28;20201;-84
2023/04/20 18:01:18;;;;;;;12.63;5.88;;;14.20;14.90;;;;;;10478915;28;20239;-84
2023/04/20 18:06:39;;;;;;;10.20;6.03;;;14.00;15.00;;;;;;10449633;28;20559;-85
2023/04/20 18:12:01;;;;;;;9.80;7.10;;;13.90;15.40;;;;;;10471299;28;20321;-84
2023/04/20 18:17:24;;;;;;;9.80;6.00;;;13.80;16.30;;;;;;10461166;28;20288;-83
2023/04/20 18:22:49;;;;;;;9.38;5.90;;;13.60;16.40;;;;;;10444259;28;20394;-86
2023/04/20 18:28:10;;;;;;;8.73;5.55;;;13.50;16.20;;;;;;10463656;28;20289;-83
2023/04/20 18:33:31;;;;;;;9.32;5.85;;;13.40;16.40;;;;;;10463717;28;20318;-85
2023/04/20 18:38:53;;;;;;;13.95;6.82;;;13.30;99.90;;;;;;10437797;28;20269;-84
2023/04/20 18:44:15;;;;;;;14.93;7.25;;;13.20;99.90;;;;;;10441176;28;20279;-86
2023/04/20 18:49:36;;;;;;;12.85;6.70;;;13.10;99.90;;;;;;10438402;28;20221;-86
2023/04/20 18:54:58;;;;;;;14.48;6.18;;;13.00;99.90;;;;;;10458850;28;20389;-83
2023/04/20 19:00:19;;;;;;;13.15;5.90;;;12.80;99.90;;;;;;10463022;28;20306;-86
2023/04/20 19:05:41;;;;;;;8.95;5.43;;;12.70;99.90;;;;;;10462190;28;20261;-84
2023/04/20 19:11:02;;;;;;;12.80;5.72;;;12.60;99.90;;;;;;10475161;28;20265;-85
2023/04/20 19:16:23;;;;;;;8.15;5.75;;;12.60;1.00;;;;;;10478426;28;20241;-86
2023/04/20 19:21:45;;;;;;;13.75;6.43;;;12.60;99.90;;;;;;10463149;28;20202;-85
2023/04/20 19:27:06;;;;;;;9.77;6.50;;;12.40;99.90;;;;;;10478411;28;20233;-85
2023/04/20 19:32:27;;;;;;;9.80;6.57;;;12.20;99.90;;;;;;10504205;28;20195;-85
2023/04/20 19:37:49;;;;;;;11.23;6.13;;;12.20;1.00;;;;;;10483036;28;20198;-85
2023/04/20 19:43:10;;;;;;;10.10;5.90;;;12.10;1.00;;;;;;10446721;28;20199;-86
2023/04/20 19:48:31;;;;;;;11.70;6.40;;;12.10;1.00;;;;;;10470393;28;20359;-86
2023/04/20 19:53:53;;;;;;;8.47;5.47;;;11.10;1.00;;;;;;10480089;28;20189;-85
2023/04/20 19:59:14;;;;;;;12.68;6.30;;;11.90;1.00;;;;;;10468388;28;20385;-86
2023/04/20 20:04:36;;;;;;;10.50;5.67;;;11.80;1.00;;;;;;10455942;28;20199;-85
2023/04/20 20:09:58;;;;;;;8.03;5.63;;;;;;;;;;10471576;28;20226;-85
2023/04/20 20:15:19;;;;;;;14.37;6.10;;;;;;;;;;10483659;28;20384;-85
2023/04/20 20:20:41;;;;;;;10.00;6.33;;;11.70;99.90;;;;;;10468770;28;20273;-84
2023/04/20 20:26:02;;;;;;;12.07;6.43;;;11.70;1.00;;;;;;10499208;28;20317;-85
2023/04/20 20:31:24;;;;;;;15.90;6.33;;;11.60;1.00;;;;;;10510242;28;20195;-85
2023/04/20 20:36:47;;;;;;;9.23;6.00;;;11.50;1.00;;;;;;10524220;28;20388;-86
2023/04/20 20:42:11;;;;;;;11.03;5.83;;;11.40;1.00;;;;;;10518693;28;20448;-85
2023/04/20 20:47:32;;;;;;;15.77;6.00;;;11.30;1.00;;;;;;10482110;28;20298;-84
2023/04/20 20:52:54;;;;;;;7.10;4.77;;;11.20;1.00;;;;;;10453436;28;20272;-85
2023/04/20 20:58:15;;;;;;;10.83;5.87;;;11.20;1.00;;;;;;10440645;28;20253;-85
2023/04/20 21:03:36;;;;;;;12.23;5.27;;;11.20;1.00;;;;;;10426111;28;20226;-84
2023/04/20 21:08:58;;;;;;;11.03;5.77;;;11.10;1.00;;;;;;10436068;28;20281;-85
2023/04/20 21:14:19;;;;;;;11.23;5.33;;;11.00;1.00;;;;;;10467092;28;20228;-85
2023/04/20 21:19:40;;;;;;;10.07;5.87;;;11.00;1.00;;;;;;10480928;28;20206;-84
2023/04/20 21:25:02;;;;;;;9.57;4.93;;;10.90;1.00;;;;;;10497750;28;20285;-85
2023/04/20 21:30:24;;;;;;;12.80;5.13;;;10.90;1.00;;;;;;10521734;28;20251;-86
2023/04/20 21:35:45;;;;;;;10.50;4.93;;;10.90;1.00;;;;;;10507380;28;20394;-84
2023/04/20 21:41:07;;;;;;;11.30;5.30;;;10.80;1.00;;;;;;10502247;28;20229;-85
2023/04/20 21:46:28;;;;;;;10.03;5.17;;;10.80;1.00;;;;;;10491889;28;20462;-85
2023/04/20 21:51:50;;;;;;;10.03;4.93;;;10.80;1.00;;;;;;10479568;28;20199;-85
2023/04/20 21:57:11;;;;;;;12.37;5.60;;;10.70;1.00;;;;;;10483539;28;20249;-86
2023/04/20 22:02:33;;;;;;;10.27;4.50;;;10.70;1.00;;;;;;10465183;28;20519;-85
2023/04/20 22:07:57;;;;;;;22.53;5.90;;;10.70;1.00;;;;;;10464482;28;20242;-84
2023/04/20 22:13:18;;;;;;;10.57;5.27;;;10.60;1.00;;;;;;10461849;28;20197;-84
2023/04/20 22:18:41;;;;;;;12.33;5.53;;;10.40;1.00;;;;;;10463998;28;20226;-83
2023/04/20 22:24:02;;;;;;;7.47;4.73;;;10.40;1.00;;;;;;10492556;28;20217;-84
2023/04/20 22:29:24;;;;;;;9.77;4.70;;;;;;;;;;10497062;28;20250;-83
2023/04/20 22:34:46;;;;;;;11.80;4.63;;;;;;;;;;10463760;28;20214;-84
2023/04/20 22:40:08;;;;;;;8.30;4.30;;;10.10;1.00;;;;;;10462795;28;20205;-85
2023/04/20 22:45:29;;;;;;;9.67;6.17;;;10.30;1.00;;;;;;10463425;28;20210;-85
2023/04/20 22:50:51;;;;;;;8.63;4.73;;;10.30;1.00;;;;;;10463158;28;20203;-84
2023/04/20 22:56:12;;;;;;;9.57;4.33;;;10.20;1.00;;;;;;10462614;28;20210;-84
2023/04/20 23:01:33;;;;;;;7.63;4.77;;;10.10;1.00;;;;;;10449258;28;20206;-83
2023/04/20 23:06:56;;;;;;;9.80;4.90;;;10.10;1.00;;;;;;10462297;28;20238;-85
2023/04/20 23:12:19;;;;;;;6.03;4.20;;;10.00;1.00;;;;;;10473131;28;20220;-85
2023/04/20 23:17:41;;;;;;;7.47;4.73;;;;;;;;;;10448839;28;20488;-84
2023/04/20 23:23:03;;;;;;;8.77;4.53;;;10.00;1.00;;;;;;10462227;28;20203;-85
2023/04/20 23:28:24;;;;;;;7.87;4.30;;;10.00;2.50;;;;;;10494033;28;20222;-84
2023/04/20 23:33:46;;;;;;;12.23;6.23;;;10.10;17.60;;;;;;10484793;28;20478;-84
2023/04/20 23:39:08;;;;;;;12.43;7.03;;;9.90;26.90;;;;;;10480100;28;20230;-84
2023/04/20 23:44:29;;;;;;;9.17;6.10;;;9.80;99.90;;;;;;10490920;28;20280;-85
2023/04/20 23:49:50;;;;;;;7.83;4.37;;;9.80;1.00;;;;;;10484332;28;20514;-85
2023/04/20 23:55:13;;;;;;;6.53;4.20;;;9.80;69.70;;;;;;10468961;28;20202;-84
